Sunday, September 23, 2018, 4:38 AM GMT
Back to Local

CYYY, Mont Joli, Que.

Location: , , Canada Lat: 48.6
Local Time: 4:38 AM GMT ( 4:38 GMT) Lon: -68.217
Time Zone: GMT Elev: 157 ft

Show me the last for .
Show Coded

Time T Td Feel RH Dir Speed Gust Alt SLP Vis Weather Sky Remarks
2018-09-23 04:00 41 32 36 70 220° 8 - 30.11 30.12 15 FEW065 None
2018-09-23 03:00 45 32 41 61 240° 7 - 30.11 30.12 15 CLR None
2018-09-23 02:00 46 32 41 56 260° 12 - 30.11 30.12 15 FEW065 None
2018-09-23 01:00 46 34 41 61 280° 12 - 30.10 30.11 15 FEW065 None
2018-09-23 00:00 45 36 42 70 230° 5 - 30.10 30.11 15 FEW065 None
2018-09-22 23:00 46 34 42 61 250° 9 - 30.07 30.09 15 SCT065 None
2018-09-22 22:00 50 36 46 57 250° 12 - 30.05 30.06 30 FEW045 None
2018-09-22 21:00 52 34 - 50 260° 16 - 30.03 30.03 30 FEW065 None
2018-09-22 20:00 54 37 - 54 250° 16 23 29.99 30.00 30 FEW045 None
2018-09-22 19:00 52 36 - 53 270° 16 - 29.98 29.99 30 FEW040 None
2018-09-22 18:00 54 34 - 46 260° 21 - 29.96 29.97 30 FEW040 None
2018-09-22 17:00 52 36 - 53 260° 21 28 29.96 29.97 30 FEW040 None
2018-09-22 16:00 52 36 - 53 270° 21 29 29.94 29.94 30 FEW035 None
2018-09-22 15:00 50 37 42 61 270° 24 30 29.91 29.92 30 SCT040 None
2018-09-22 14:00 48 37 40 66 270° 22 30 29.88 29.89 30 SCT040 None
2018-09-22 13:00 48 36 40 61 270° 22 29 29.83 29.84 30 BKN045 None
2018-09-22 12:00 46 36 37 65 280° 22 35 29.77 29.78 30 BKN040 Pressure rising rapidly
2018-09-22 11:00 48 36 38 61 280° 28 41 29.70 29.70 30 BKN040 Pressure rising rapidly
2018-09-22 10:00 50 37 41 61 290° 31 41 29.59 29.59 30 BKN035 Pressure rising rapidly
2018-09-22 09:00 55 46 - 71 260° 30 41 29.44 29.45 15 BKN042 BKN100 Pressure rising rapidly
2018-09-22 08:00 59 50 - 72 240° 31 44 29.35 29.35 15 BKN093 None
2018-09-22 07:00 59 55 - 87 230° 21 35 29.30 29.31 15 OVC059 None
2018-09-22 06:00 64 57 - 77 210° 23 41 29.26 29.27 15 BKN110 None
2018-09-22 05:00 63 57 - 82 200° 30 52 29.26 29.27 15 FEW023 BKN087 Pressure falling rapidly

Support USWX by starting your Amazon purchase here.